sensor_id;sensor_type;location;lat;lon;timestamp;pressure;altitude;pressure_sealevel;temperature;humidity
80393;BME280;69719;45.544;10.218;2023-06-22T00:02:14;100220.66;;;25.92;52.03
80393;BME280;69719;45.544;10.218;2023-06-22T00:04:39;100221.44;;;25.92;51.92
80393;BME280;69719;45.544;10.218;2023-06-22T00:07:05;100226.97;;;25.96;51.90
80393;BME280;69719;45.544;10.218;2023-06-22T00:09:31;100226.50;;;26.02;51.73
80393;BME280;69719;45.544;10.218;2023-06-22T00:11:56;100221.72;;;26.13;51.08
80393;BME280;69719;45.544;10.218;2023-06-22T00:14:22;100219.38;;;26.20;51.45
80393;BME280;69719;45.544;10.218;2023-06-22T00:16:47;100221.16;;;26.02;51.67
80393;BME280;69719;45.544;10.218;2023-06-22T00:19:15;100230.22;;;26.15;51.22
80393;BME280;69719;45.544;10.218;2023-06-22T00:21:40;100225.53;;;26.29;50.70
80393;BME280;69719;45.544;10.218;2023-06-22T00:24:07;100228.53;;;26.28;50.67
80393;BME280;69719;45.544;10.218;2023-06-22T00:26:33;100223.59;;;26.13;51.17
80393;BME280;69719;45.544;10.218;2023-06-22T00:28:58;100225.47;;;26.12;51.18
80393;BME280;69719;45.544;10.218;2023-06-22T00:31:24;100218.47;;;25.94;51.63
80393;BME280;69719;45.544;10.218;2023-06-22T00:33:49;100224.13;;;26.01;51.31
80393;BME280;69719;45.544;10.218;2023-06-22T00:36:16;100221.34;;;26.06;51.47
80393;BME280;69719;45.544;10.218;2023-06-22T00:38:44;100221.03;;;26.08;51.49
80393;BME280;69719;45.544;10.218;2023-06-22T00:41:09;100217.97;;;25.92;51.91
80393;BME280;69719;45.544;10.218;2023-06-22T00:43:35;100217.97;;;25.92;52.01
80393;BME280;69719;45.544;10.218;2023-06-22T00:46:01;100212.31;;;25.85;52.15
80393;BME280;69719;45.544;10.218;2023-06-22T00:48:26;100214.72;;;25.95;51.71
80393;BME280;69719;45.544;10.218;2023-06-22T00:50:52;100216.91;;;25.93;51.71
80393;BME280;69719;45.544;10.218;2023-06-22T00:53:20;100217.50;;;25.90;51.89
80393;BME280;69719;45.544;10.218;2023-06-22T00:55:48;100213.28;;;25.89;52.01
80393;BME280;69719;45.544;10.218;2023-06-22T00:58:17;100218.63;;;25.89;52.11
80393;BME280;69719;45.544;10.218;2023-06-22T01:00:47;100220.97;;;25.90;52.14
80393;BME280;69719;45.544;10.218;2023-06-22T01:03:13;100220.81;;;25.87;52.16
80393;BME280;69719;45.544;10.218;2023-06-22T01:05:39;100216.91;;;25.93;52.05
80393;BME280;69719;45.544;10.218;2023-06-22T01:08:23;100222.91;;;25.68;52.73
80393;BME280;69719;45.544;10.218;2023-06-22T01:11:07;100221.56;;;25.79;52.61
80393;BME280;69719;45.544;10.218;2023-06-22T01:14:06;100227.88;;;25.61;53.07
80393;BME280;69719;45.544;10.218;2023-06-22T01:16:37;100233.72;;;25.71;52.85
80393;BME280;69719;45.544;10.218;2023-06-22T01:21:55;100228.72;;;25.70;52.82
80393;BME280;69719;45.544;10.218;2023-06-22T01:29:40;100225.41;;;25.42;53.84
80393;BME280;69719;45.544;10.218;2023-06-22T01:32:06;100224.25;;;25.57;53.19
80393;BME280;69719;45.544;10.218;2023-06-22T01:34:33;100223.00;;;25.41;53.67
80393;BME280;69719;45.544;10.218;2023-06-22T01:37:00;100219.78;;;25.44;53.64
80393;BME280;69719;45.544;10.218;2023-06-22T01:39:27;100219.81;;;25.30;54.13
80393;BME280;69719;45.544;10.218;2023-06-22T01:41:53;100220.59;;;25.31;54.08
80393;BME280;69719;45.544;10.218;2023-06-22T01:44:19;100231.25;;;25.31;54.44
80393;BME280;69719;45.544;10.218;2023-06-22T01:46:48;100228.72;;;25.25;54.17
80393;BME280;69719;45.544;10.218;2023-06-22T01:49:14;100227.31;;;25.28;54.32
80393;BME280;69719;45.544;10.218;2023-06-22T01:51:40;100228.09;;;25.28;54.32
80393;BME280;69719;45.544;10.218;2023-06-22T01:54:06;100233.31;;;25.34;54.23
80393;BME280;69719;45.544;10.218;2023-06-22T01:56:33;100227.03;;;25.30;53.97
80393;BME280;69719;45.544;10.218;2023-06-22T01:59:34;100225.53;;;25.23;54.17
80393;BME280;69719;45.544;10.218;2023-06-22T02:01:57;100226.91;;;25.12;54.62
80393;BME280;69719;45.544;10.218;2023-06-22T02:04:27;100227.97;;;25.11;54.70
80393;BME280;69719;45.544;10.218;2023-06-22T02:06:56;100226.94;;;24.99;54.78
80393;BME280;69719;45.544;10.218;2023-06-22T02:09:25;100225.78;;;25.13;54.72
80393;BME280;69719;45.544;10.218;2023-06-22T02:11:55;100216.78;;;25.01;54.83
80393;BME280;69719;45.544;10.218;2023-06-22T02:14:22;100221.13;;;24.97;54.92
80393;BME280;69719;45.544;10.218;2023-06-22T02:16:47;100224.81;;;25.09;54.76
80393;BME280;69719;45.544;10.218;2023-06-22T02:19:13;100228.81;;;24.98;54.97
80393;BME280;69719;45.544;10.218;2023-06-22T02:21:43;100227.00;;;25.07;54.70
80393;BME280;69719;45.544;10.218;2023-06-22T02:24:09;100233.13;;;25.08;54.67
80393;BME280;69719;45.544;10.218;2023-06-22T02:26:35;100227.25;;;24.97;55.37
80393;BME280;69719;45.544;10.218;2023-06-22T02:29:03;100230.34;;;24.77;56.00
80393;BME280;69719;45.544;10.218;2023-06-22T02:31:29;100232.59;;;24.84;55.59
80393;BME280;69719;45.544;10.218;2023-06-22T02:33:57;100238.25;;;25.04;54.93
80393;BME280;69719;45.544;10.218;2023-06-22T02:36:23;100238.25;;;25.04;54.85
80393;BME280;69719;45.544;10.218;2023-06-22T02:38:50;100244.38;;;25.05;55.23
80393;BME280;69719;45.544;10.218;2023-06-22T02:41:15;100240.81;;;25.09;54.89
80393;BME280;69719;45.544;10.218;2023-06-22T02:43:46;100240.28;;;25.21;54.23
80393;BME280;69719;45.544;10.218;2023-06-22T02:46:13;100244.56;;;25.08;54.69
80393;BME280;69719;45.544;10.218;2023-06-22T02:48:42;100247.41;;;25.12;54.67
80393;BME280;69719;45.544;10.218;2023-06-22T02:51:07;100245.53;;;25.12;54.84
80393;BME280;69719;45.544;10.218;2023-06-22T02:53:33;100243.56;;;25.04;54.76
80393;BME280;69719;45.544;10.218;2023-06-22T02:55:59;100254.59;;;25.11;54.59
80393;BME280;69719;45.544;10.218;2023-06-22T02:58:26;100256.53;;;25.19;54.28
80393;BME280;69719;45.544;10.218;2023-06-22T03:00:52;100246.84;;;25.23;54.57
80393;BME280;69719;45.544;10.218;2023-06-22T03:03:21;100242.47;;;25.19;54.34
80393;BME280;69719;45.544;10.218;2023-06-22T03:05:46;100243.28;;;25.06;54.65
80393;BME280;69719;45.544;10.218;2023-06-22T03:08:12;100246.97;;;24.96;55.18
80393;BME280;69719;45.544;10.218;2023-06-22T03:10:37;100242.25;;;24.93;55.62
80393;BME280;69719;45.544;10.218;2023-06-22T03:13:03;100234.56;;;24.65;55.93
80393;BME280;69719;45.544;10.218;2023-06-22T03:15:28;100239.91;;;24.78;55.56
80393;BME280;69719;45.544;10.218;2023-06-22T03:17:57;100252.28;;;24.96;55.43
80393;BME280;69719;45.544;10.218;2023-06-22T03:20:23;100245.00;;;24.88;55.62
80393;BME280;69719;45.544;10.218;2023-06-22T03:22:49;100248.38;;;24.80;55.96
80393;BME280;69719;45.544;10.218;2023-06-22T03:25:14;100241.81;;;24.50;56.81
80393;BME280;69719;45.544;10.218;2023-06-22T03:27:41;100238.94;;;24.47;56.97
80393;BME280;69719;45.544;10.218;2023-06-22T03:30:08;100235.25;;;24.70;56.17
80393;BME280;69719;45.544;10.218;2023-06-22T03:32:34;100240.22;;;24.63;56.16
80393;BME280;69719;45.544;10.218;2023-06-22T03:34:59;100243.56;;;24.82;55.25
80393;BME280;69719;45.544;10.218;2023-06-22T03:37:26;100239.38;;;24.90;55.24
80393;BME280;69719;45.544;10.218;2023-06-22T03:39:52;100238.50;;;24.81;55.68
80393;BME280;69719;45.544;10.218;2023-06-22T03:42:18;100241.94;;;24.95;54.90
80393;BME280;69719;45.544;10.218;2023-06-22T03:44:43;100241.25;;;24.89;55.00
80393;BME280;69719;45.544;10.218;2023-06-22T03:47:08;100244.22;;;24.88;55.07
80393;BME280;69719;45.544;10.218;2023-06-22T03:49:35;100239.59;;;24.93;55.15
80393;BME280;69719;45.544;10.218;2023-06-22T03:52:02;100240.28;;;24.85;55.31
80393;BME280;69719;45.544;10.218;2023-06-22T03:54:31;100238.41;;;24.72;55.61
80393;BME280;69719;45.544;10.218;2023-06-22T03:56:57;100246.63;;;24.76;55.45
80393;BME280;69719;45.544;10.218;2023-06-22T03:59:23;100245.13;;;24.83;55.37
80393;BME280;69719;45.544;10.218;2023-06-22T04:01:49;100242.44;;;24.83;55.59
80393;BME280;69719;45.544;10.218;2023-06-22T04:04:16;100245.81;;;24.75;55.75
80393;BME280;69719;45.544;10.218;2023-06-22T04:06:41;100247.50;;;24.85;55.12
80393;BME280;69719;45.544;10.218;2023-06-22T04:09:07;100251.13;;;24.89;55.41
80393;BME280;69719;45.544;10.218;2023-06-22T04:11:32;100250.56;;;24.78;55.55
80393;BME280;69719;45.544;10.218;2023-06-22T04:13:58;100258.72;;;24.95;55.24
80393;BME280;69719;45.544;10.218;2023-06-22T04:16:23;100256.72;;;24.87;55.12
80393;BME280;69719;45.544;10.218;2023-06-22T04:18:49;100259.19;;;24.97;55.06
80393;BME280;69719;45.544;10.218;2023-06-22T04:21:14;100247.94;;;25.00;54.82
80393;BME280;69719;45.544;10.218;2023-06-22T04:23:40;100253.63;;;25.07;54.83
80393;BME280;69719;45.544;10.218;2023-06-22T04:26:05;100254.59;;;25.11;54.71
80393;BME280;69719;45.544;10.218;2023-06-22T04:28:31;100250.41;;;24.97;54.91
80393;BME280;69719;45.544;10.218;2023-06-22T04:31:03;100249.75;;;24.91;55.09
80393;BME280;69719;45.544;10.218;2023-06-22T04:33:29;100240.91;;;25.04;55.02
80393;BME280;69719;45.544;10.218;2023-06-22T04:35:55;100236.94;;;25.15;54.34
80393;BME280;69719;45.544;10.218;2023-06-22T04:38:22;100237.41;;;25.17;54.49
80393;BME280;69719;45.544;10.218;2023-06-22T04:40:48;100240.00;;;25.09;54.79
80393;BME280;69719;45.544;10.218;2023-06-22T04:43:14;100231.94;;;25.00;54.72
80393;BME280;69719;45.544;10.218;2023-06-22T04:45:40;100227.00;;;25.07;54.63
80393;BME280;69719;45.544;10.218;2023-06-22T04:48:05;100232.81;;;25.09;54.63
80393;BME280;69719;45.544;10.218;2023-06-22T04:50:31;100234.28;;;25.15;54.36
80393;BME280;69719;45.544;10.218;2023-06-22T04:52:56;100229.75;;;25.16;54.68
80393;BME280;69719;45.544;10.218;2023-06-22T04:55:23;100228.72;;;25.25;54.24
80393;BME280;69719;45.544;10.218;2023-06-22T04:57:51;100233.44;;;25.28;53.96
80393;BME280;69719;45.544;10.218;2023-06-22T05:00:17;100233.31;;;25.34;54.19
80393;BME280;69719;45.544;10.218;2023-06-22T05:02:45;100233.81;;;25.36;54.36
80393;BME280;69719;45.544;10.218;2023-06-22T05:05:12;100233.31;;;25.34;54.26
80393;BME280;69719;45.544;10.218;2023-06-22T05:07:44;100236.56;;;25.31;54.53
80393;BME280;69719;45.544;10.218;2023-06-22T05:10:11;100235.44;;;25.23;54.78
80393;BME280;69719;45.544;10.218;2023-06-22T05:12:39;100232.53;;;25.33;54.25
80393;BME280;69719;45.544;10.218;2023-06-22T05:15:06;100224.50;;;25.47;53.78
80393;BME280;69719;45.544;10.218;2023-06-22T05:17:32;100220.16;;;25.37;54.42
80393;BME280;69719;45.544;10.218;2023-06-22T05:19:58;100219.19;;;25.47;53.96
80393;BME280;69719;45.544;10.218;2023-06-22T05:22:23;100233.56;;;25.46;53.86
80393;BME280;69719;45.544;10.218;2023-06-22T05:24:49;100214.94;;;25.46;53.69
80393;BME280;69719;45.544;10.218;2023-06-22T05:27:14;100212.19;;;25.59;53.21
80393;BME280;69719;45.544;10.218;2023-06-22T05:29:40;100210.59;;;25.58;53.45
80393;BME280;69719;45.544;10.218;2023-06-22T05:32:06;100221.34;;;25.45;53.93
80393;BME280;69719;45.544;10.218;2023-06-22T05:34:32;100222.59;;;25.47;53.89
80393;BME280;69719;45.544;10.218;2023-06-22T05:36:57;100226.22;;;25.43;54.16
80393;BME280;69719;45.544;10.218;2023-06-22T05:39:24;100231.88;;;25.50;54.40
80393;BME280;69719;45.544;10.218;2023-06-22T05:41:50;100239.28;;;25.53;54.46
80393;BME280;69719;45.544;10.218;2023-06-22T05:44:15;100238.06;;;25.59;54.98
80393;BME280;69719;45.544;10.218;2023-06-22T05:46:42;100240.88;;;25.62;55.05
80393;BME280;69719;45.544;10.218;2023-06-22T05:49:15;100234.47;;;25.63;55.37
80393;BME280;69719;45.544;10.218;2023-06-22T05:51:41;100240.41;;;25.60;55.00
80393;BME280;69719;45.544;10.218;2023-06-22T05:54:07;100239.59;;;25.82;54.23
80393;BME280;69719;45.544;10.218;2023-06-22T05:56:34;100230.59;;;25.69;54.42
80393;BME280;69719;45.544;10.218;2023-06-22T05:58:59;100224.88;;;25.84;54.00
80393;BME280;69719;45.544;10.218;2023-06-22T06:01:25;100232.16;;;26.01;53.55
80393;BME280;69719;45.544;10.218;2023-06-22T06:03:51;100227.00;;;26.05;53.91
80393;BME280;69719;45.544;10.218;2023-06-22T06:06:18;100226.44;;;26.16;53.68
80393;BME280;69719;45.544;10.218;2023-06-22T06:08:45;100225.63;;;26.16;53.84
80393;BME280;69719;45.544;10.218;2023-06-22T06:11:11;100227.72;;;26.27;53.38
80393;BME280;69719;45.544;10.218;2023-06-22T06:13:36;100218.47;;;26.33;53.62
80393;BME280;69719;45.544;10.218;2023-06-22T06:16:02;100217.06;;;26.36;53.26
80393;BME280;69719;45.544;10.218;2023-06-22T06:18:27;100213.63;;;26.35;53.19
80393;BME280;69719;45.544;10.218;2023-06-22T06:20:53;100194.34;;;26.47;52.56
80393;BME280;69719;45.544;10.218;2023-06-22T06:23:18;100198.09;;;26.54;52.58
80393;BME280;69719;45.544;10.218;2023-06-22T06:25:43;100199.53;;;26.60;52.25
80393;BME280;69719;45.544;10.218;2023-06-22T06:28:09;100212.88;;;26.69;52.32
80393;BME280;69719;45.544;10.218;2023-06-22T06:30:34;100206.28;;;26.49;53.01
80393;BME280;69719;45.544;10.218;2023-06-22T06:33:02;100209.44;;;26.60;53.04
80393;BME280;69719;45.544;10.218;2023-06-22T06:35:28;100219.66;;;26.66;52.99
80393;BME280;69719;45.544;10.218;2023-06-22T06:37:53;100218.22;;;26.60;53.27
80393;BME280;69719;45.544;10.218;2023-06-22T06:40:19;100218.06;;;26.65;52.59
80393;BME280;69719;45.544;10.218;2023-06-22T06:42:46;100224.72;;;26.77;52.03
80393;BME280;69719;45.544;10.218;2023-06-22T06:45:17;100221.72;;;26.95;51.99
80393;BME280;69719;45.544;10.218;2023-06-22T06:47:43;100219.69;;;27.09;51.38
80393;BME280;69719;45.544;10.218;2023-06-22T06:50:09;100229.72;;;27.21;50.77
80393;BME280;69719;45.544;10.218;2023-06-22T06:52:35;100233.81;;;27.27;49.37
80393;BME280;69719;45.544;10.218;2023-06-22T06:55:01;100236.34;;;27.49;49.17
80393;BME280;69719;45.544;10.218;2023-06-22T06:57:26;100239.13;;;27.61;49.05
80393;BME280;69719;45.544;10.218;2023-06-22T06:59:55;100243.22;;;27.67;48.64
80393;BME280;69719;45.544;10.218;2023-06-22T07:02:21;100252.28;;;27.83;48.24
80393;BME280;69719;45.544;10.218;2023-06-22T07:04:47;100253.94;;;28.13;46.71
80393;BME280;69719;45.544;10.218;2023-06-22T07:07:13;100244.28;;;28.21;46.17
80393;BME280;69719;45.544;10.218;2023-06-22T07:09:39;100250.78;;;28.20;46.45
80393;BME280;69719;45.544;10.218;2023-06-22T07:12:05;100254.88;;;28.47;45.76
80393;BME280;69719;45.544;10.218;2023-06-22T07:14:30;100248.91;;;28.70;45.06
80393;BME280;69719;45.544;10.218;2023-06-22T07:16:57;100250.44;;;28.80;44.89
80393;BME280;69719;45.544;10.218;2023-06-22T07:19:27;100249.84;;;28.74;45.31
80393;BME280;69719;45.544;10.218;2023-06-22T07:21:56;100251.53;;;28.79;45.23
80393;BME280;69719;45.544;10.218;2023-06-22T07:24:22;100253.91;;;28.80;45.64
80393;BME280;69719;45.544;10.218;2023-06-22T07:26:48;100254.75;;;28.93;45.21
80393;BME280;69719;45.544;10.218;2023-06-22T07:29:19;100263.72;;;28.97;45.46
80393;BME280;69719;45.544;10.218;2023-06-22T07:31:49;100257.91;;;28.95;45.19
80393;BME280;69719;45.544;10.218;2023-06-22T07:34:17;100261.50;;;29.20;44.79
80393;BME280;69719;45.544;10.218;2023-06-22T07:36:43;100266.59;;;29.33;44.59
80393;BME280;69719;45.544;10.218;2023-06-22T07:39:09;100259.53;;;29.29;44.62
80393;BME280;69719;45.544;10.218;2023-06-22T07:41:34;100260.94;;;29.47;44.22
80393;BME280;69719;45.544;10.218;2023-06-22T07:44:03;100267.50;;;29.37;44.91
80393;BME280;69719;45.544;10.218;2023-06-22T07:46:29;100267.34;;;29.54;44.45
80393;BME280;69719;45.544;10.218;2023-06-22T07:48:56;100273.41;;;29.63;44.42
80393;BME280;69719;45.544;10.218;2023-06-22T07:51:22;100280.50;;;29.80;44.30
80393;BME280;69719;45.544;10.218;2023-06-22T07:53:49;100283.78;;;29.98;43.59
80393;BME280;69719;45.544;10.218;2023-06-22T07:56:14;100273.16;;;29.89;43.95
80393;BME280;69719;45.544;10.218;2023-06-22T07:58:45;100270.75;;;29.76;44.53
80393;BME280;69719;45.544;10.218;2023-06-22T08:01:11;100256.59;;;29.54;44.88
80393;BME280;69719;45.544;10.218;2023-06-22T08:03:37;100254.69;;;29.22;45.70
80393;BME280;69719;45.544;10.218;2023-06-22T08:06:03;100251.94;;;29.31;45.83
80393;BME280;69719;45.544;10.218;2023-06-22T08:08:28;100252.72;;;29.31;45.39
80393;BME280;69719;45.544;10.218;2023-06-22T08:10:54;100241.63;;;29.21;46.10
80393;BME280;69719;45.544;10.218;2023-06-22T08:13:19;100240.88;;;29.32;45.93
80393;BME280;69719;45.544;10.218;2023-06-22T08:15:45;100232.66;;;29.49;44.88
80393;BME280;69719;45.544;10.218;2023-06-22T08:18:10;100222.38;;;29.84;44.41
80393;BME280;69719;45.544;10.218;2023-06-22T08:20:36;100216.03;;;30.13;44.15
80393;BME280;69719;45.544;10.218;2023-06-22T08:23:01;100214.44;;;30.00;44.20
80393;BME280;69719;45.544;10.218;2023-06-22T08:25:32;100212.44;;;30.21;43.15
80393;BME280;69719;45.544;10.218;2023-06-22T08:27:58;100207.88;;;30.33;42.64
80393;BME280;69719;45.544;10.218;2023-06-22T08:30:23;100212.44;;;30.09;44.12
80393;BME280;69719;45.544;10.218;2023-06-22T08:32:49;100205.94;;;30.22;43.51
80393;BME280;69719;45.544;10.218;2023-06-22T08:35:14;100205.72;;;30.15;43.65
80393;BME280;69719;45.544;10.218;2023-06-22T08:37:40;100202.69;;;30.16;43.39
80393;BME280;69719;45.544;10.218;2023-06-22T08:40:07;100211.44;;;30.37;43.03
80393;BME280;69719;45.544;10.218;2023-06-22T08:42:34;100206.81;;;30.62;42.10
80393;BME280;69719;45.544;10.218;2023-06-22T08:44:59;100204.72;;;30.83;41.65
80393;BME280;69719;45.544;10.218;2023-06-22T08:47:27;100196.06;;;31.02;40.05
80393;BME280;69719;45.544;10.218;2023-06-22T08:49:53;100201.72;;;31.12;40.44
80393;BME280;69719;45.544;10.218;2023-06-22T08:52:19;100185.03;;;30.79;40.98
80393;BME280;69719;45.544;10.218;2023-06-22T08:54:48;100185.22;;;30.98;40.50
80393;BME280;69719;45.544;10.218;2023-06-22T08:57:14;100174.72;;;30.81;40.26
80393;BME280;69719;45.544;10.218;2023-06-22T08:59:39;100171.34;;;30.96;40.96
80393;BME280;69719;45.544;10.218;2023-06-22T09:02:05;100167.94;;;30.99;40.60
80393;BME280;69719;45.544;10.218;2023-06-22T09:04:31;100161.06;;;30.86;40.73
80393;BME280;69719;45.544;10.218;2023-06-22T09:07:00;100163.38;;;31.00;40.46
80393;BME280;69719;45.544;10.218;2023-06-22T09:09:26;100147.00;;;31.05;40.28
80393;BME280;69719;45.544;10.218;2023-06-22T09:11:51;100143.44;;;31.16;39.41
80393;BME280;69719;45.544;10.218;2023-06-22T09:14:17;100130.63;;;31.26;40.03
80393;BME280;69719;45.544;10.218;2023-06-22T09:16:42;100128.84;;;31.45;39.89
80393;BME280;69719;45.544;10.218;2023-06-22T09:19:08;100129.78;;;31.37;40.33
80393;BME280;69719;45.544;10.218;2023-06-22T09:21:33;100134.13;;;31.42;40.69
80393;BME280;69719;45.544;10.218;2023-06-22T09:23:59;100142.88;;;31.70;40.09
80393;BME280;69719;45.544;10.218;2023-06-22T09:26:25;100147.66;;;32.08;39.26
80393;BME280;69719;45.544;10.218;2023-06-22T09:28:50;100144.78;;;31.85;39.74
80393;BME280;69719;45.544;10.218;2023-06-22T09:31:16;100149.59;;;31.60;40.57
80393;BME280;69719;45.544;10.218;2023-06-22T09:33:42;100159.03;;;31.70;40.07
80393;BME280;69719;45.544;10.218;2023-06-22T09:36:07;100151.13;;;31.61;40.17
80393;BME280;69719;45.544;10.218;2023-06-22T09:38:37;100153.38;;;31.44;41.04
80393;BME280;69719;45.544;10.218;2023-06-22T09:41:02;100146.00;;;31.87;38.77
80393;BME280;69719;45.544;10.218;2023-06-22T09:43:28;100142.03;;;31.97;39.29
80393;BME280;69719;45.544;10.218;2023-06-22T09:45:53;100135.09;;;32.15;38.44
80393;BME280;69719;45.544;10.218;2023-06-22T09:48:19;100132.22;;;31.58;40.08
80393;BME280;69719;45.544;10.218;2023-06-22T09:50:45;100131.94;;;31.78;38.64
80393;BME280;69719;45.544;10.218;2023-06-22T09:53:10;100133.41;;;32.07;38.63
80393;BME280;69719;45.544;10.218;2023-06-22T09:55:36;100137.56;;;31.89;39.33
80393;BME280;69719;45.544;10.218;2023-06-22T09:58:01;100142.63;;;31.75;39.04
80393;BME280;69719;45.544;10.218;2023-06-22T10:00:26;100149.91;;;31.74;39.66
80393;BME280;69719;45.544;10.218;2023-06-22T10:02:52;100138.41;;;31.93;38.83
80393;BME280;69719;45.544;10.218;2023-06-22T10:05:17;100134.00;;;31.85;39.26
80393;BME280;69719;45.544;10.218;2023-06-22T10:07:43;100140.63;;;31.87;39.18
80393;BME280;69719;45.544;10.218;2023-06-22T10:10:10;100139.63;;;32.11;37.21
80393;BME280;69719;45.544;10.218;2023-06-22T10:12:47;100144.69;;;32.47;38.00
80393;BME280;69719;45.544;10.218;2023-06-22T10:15:14;100135.66;;;32.40;37.65
80393;BME280;69719;45.544;10.218;2023-06-22T10:17:39;100141.25;;;32.31;38.44
80393;BME280;69719;45.544;10.218;2023-06-22T10:20:08;100136.81;;;31.88;39.83
80393;BME280;69719;45.544;10.218;2023-06-22T10:22:41;100140.25;;;31.89;39.71
80393;BME280;69719;45.544;10.218;2023-06-22T10:25:08;100133.81;;;31.93;38.67
80393;BME280;69719;45.544;10.218;2023-06-22T10:27:34;100123.25;;;31.85;39.47
80393;BME280;69719;45.544;10.218;2023-06-22T10:29:59;100127.00;;;31.96;38.56
80393;BME280;69719;45.544;10.218;2023-06-22T10:32:25;100126.47;;;32.44;37.52
80393;BME280;69719;45.544;10.218;2023-06-22T10:34:51;100119.72;;;32.50;38.18
80393;BME280;69719;45.544;10.218;2023-06-22T10:37:17;100122.22;;;32.59;36.67
80393;BME280;69719;45.544;10.218;2023-06-22T10:39:42;100125.88;;;32.70;37.07
80393;BME280;69719;45.544;10.218;2023-06-22T10:42:08;100120.19;;;32.37;37.81
80393;BME280;69719;45.544;10.218;2023-06-22T10:44:33;100114.81;;;32.56;36.98
80393;BME280;69719;45.544;10.218;2023-06-22T10:46:59;100115.22;;;32.77;36.81
80393;BME280;69719;45.544;10.218;2023-06-22T10:49:24;100109.00;;;32.73;37.80
80393;BME280;69719;45.544;10.218;2023-06-22T10:51:50;100116.28;;;32.34;37.75
80393;BME280;69719;45.544;10.218;2023-06-22T10:54:15;100105.25;;;32.05;38.72
80393;BME280;69719;45.544;10.218;2023-06-22T10:56:43;100100.88;;;32.16;38.09
80393;BME280;69719;45.544;10.218;2023-06-22T10:59:09;100094.72;;;32.34;38.10
80393;BME280;69719;45.544;10.218;2023-06-22T11:01:34;100082.13;;;32.57;37.75
80393;BME280;69719;45.544;10.218;2023-06-22T11:04:00;100088.56;;;32.72;37.29
80393;BME280;69719;45.544;10.218;2023-06-22T11:06:26;100080.22;;;32.58;36.85
80393;BME280;69719;45.544;10.218;2023-06-22T11:08:54;100073.38;;;32.83;36.45
80393;BME280;69719;45.544;10.218;2023-06-22T11:11:20;100072.47;;;32.76;37.53
80393;BME280;69719;45.544;10.218;2023-06-22T11:13:45;100071.25;;;32.73;37.23
80393;BME280;69719;45.544;10.218;2023-06-22T11:16:11;100065.00;;;32.88;37.29
80393;BME280;69719;45.544;10.218;2023-06-22T11:18:36;100060.94;;;32.79;37.25
80393;BME280;69719;45.544;10.218;2023-06-22T11:21:02;100054.34;;;32.53;37.80
80393;BME280;69719;45.544;10.218;2023-06-22T11:23:27;100054.25;;;32.69;36.67
80393;BME280;69719;45.544;10.218;2023-06-22T11:25:56;100047.59;;;32.63;37.19
80393;BME280;69719;45.544;10.218;2023-06-22T11:28:24;100045.00;;;32.70;38.03
80393;BME280;69719;45.544;10.218;2023-06-22T11:30:51;100038.09;;;32.92;36.41
80393;BME280;69719;45.544;10.218;2023-06-22T11:33:16;100031.81;;;32.84;36.76
80393;BME280;69719;45.544;10.218;2023-06-22T11:35:42;100031.69;;;33.22;36.30
80393;BME280;69719;45.544;10.218;2023-06-22T11:38:09;100028.31;;;32.84;37.19
80393;BME280;69719;45.544;10.218;2023-06-22T11:40:34;100022.31;;;32.94;37.62
80393;BME280;69719;45.544;10.218;2023-06-22T11:43:00;100020.84;;;32.74;38.02
80393;BME280;69719;45.544;10.218;2023-06-22T11:45:26;100012.44;;;32.79;36.84
80393;BME280;69719;45.544;10.218;2023-06-22T11:47:51;100019.22;;;32.92;37.60
80393;BME280;69719;45.544;10.218;2023-06-22T11:50:17;100003.78;;;33.11;37.29
80393;BME280;69719;45.544;10.218;2023-06-22T11:52:42;99998.84;;;32.72;36.81
80393;BME280;69719;45.544;10.218;2023-06-22T11:55:08;99997.91;;;32.41;37.77
80393;BME280;69719;45.544;10.218;2023-06-22T11:57:35;100002.63;;;32.90;37.21
80393;BME280;69719;45.544;10.218;2023-06-22T12:00:03;100005.00;;;32.72;37.33
80393;BME280;69719;45.544;10.218;2023-06-22T12:02:43;100000.09;;;33.23;35.83
80393;BME280;69719;45.544;10.218;2023-06-22T12:05:10;99997.63;;;32.92;36.83
80393;BME280;69719;45.544;10.218;2023-06-22T12:07:36;99989.66;;;32.53;37.75
80393;BME280;69719;45.544;10.218;2023-06-22T12:10:03;99991.25;;;32.77;37.11
80393;BME280;69719;45.544;10.218;2023-06-22T12:12:28;99991.28;;;33.00;37.04
80393;BME280;69719;45.544;10.218;2023-06-22T12:14:54;99983.97;;;33.26;36.50
80393;BME280;69719;45.544;10.218;2023-06-22T12:17:20;99976.91;;;33.18;35.79
80393;BME280;69719;45.544;10.218;2023-06-22T12:19:45;99969.44;;;33.34;34.95
80393;BME280;69719;45.544;10.218;2023-06-22T12:22:10;99971.81;;;33.39;35.08
80393;BME280;69719;45.544;10.218;2023-06-22T12:24:36;99975.16;;;33.56;35.22
80393;BME280;69719;45.544;10.218;2023-06-22T12:27:01;99970.31;;;33.42;35.22
80393;BME280;69719;45.544;10.218;2023-06-22T12:29:28;99974.66;;;33.76;35.12
80393;BME280;69719;45.544;10.218;2023-06-22T12:31:54;99974.63;;;34.02;34.65
80393;BME280;69719;45.544;10.218;2023-06-22T12:34:19;99975.91;;;34.15;34.29
80393;BME280;69719;45.544;10.218;2023-06-22T12:36:45;99970.50;;;34.15;34.28
80393;BME280;69719;45.544;10.218;2023-06-22T12:39:13;99974.81;;;34.20;34.29
80393;BME280;69719;45.544;10.218;2023-06-22T12:41:38;99963.56;;;34.14;34.74
80393;BME280;69719;45.544;10.218;2023-06-22T12:44:04;99982.38;;;34.41;34.29
80393;BME280;69719;45.544;10.218;2023-06-22T12:46:29;99979.31;;;34.46;34.14